sensor_id;sensor_type;location;lat;lon;timestamp;P1;durP1;ratioP1;P2;durP2;ratioP2
43580;SDS011;29175;51.030;4.606;2022-07-15T00:01:32;12.68;;;2.90;;
43580;SDS011;29175;51.030;4.606;2022-07-15T00:04:01;14.13;;;3.30;;
43580;SDS011;29175;51.030;4.606;2022-07-15T00:06:29;16.33;;;3.85;;
43580;SDS011;29175;51.030;4.606;2022-07-15T00:08:54;10.35;;;3.38;;
43580;SDS011;29175;51.030;4.606;2022-07-15T00:11:20;10.88;;;3.63;;
43580;SDS011;29175;51.030;4.606;2022-07-15T00:13:46;10.48;;;3.17;;
43580;SDS011;29175;51.030;4.606;2022-07-15T00:16:12;11.30;;;3.13;;
43580;SDS011;29175;51.030;4.606;2022-07-15T00:18:40;10.48;;;3.42;;
43580;SDS011;29175;51.030;4.606;2022-07-15T00:23:37;11.77;;;3.50;;
43580;SDS011;29175;51.030;4.606;2022-07-15T00:28:32;9.90;;;4.13;;
43580;SDS011;29175;51.030;4.606;2022-07-15T00:30:58;8.70;;;3.42;;
43580;SDS011;29175;51.030;4.606;2022-07-15T00:33:24;10.75;;;3.47;;
43580;SDS011;29175;51.030;4.606;2022-07-15T00:35:49;15.65;;;3.63;;
43580;SDS011;29175;51.030;4.606;2022-07-15T00:38:18;9.32;;;3.55;;
43580;SDS011;29175;51.030;4.606;2022-07-15T00:40:47;10.15;;;3.55;;
43580;SDS011;29175;51.030;4.606;2022-07-15T00:43:15;11.18;;;3.75;;
43580;SDS011;29175;51.030;4.606;2022-07-15T00:45:45;7.40;;;3.50;;
43580;SDS011;29175;51.030;4.606;2022-07-15T00:48:12;13.27;;;3.60;;
43580;SDS011;29175;51.030;4.606;2022-07-15T00:50:44;15.55;;;3.70;;
43580;SDS011;29175;51.030;4.606;2022-07-15T00:55:43;6.85;;;3.63;;
43580;SDS011;29175;51.030;4.606;2022-07-15T00:58:18;19.67;;;4.05;;
43580;SDS011;29175;51.030;4.606;2022-07-15T01:00:47;9.60;;;3.42;;
43580;SDS011;29175;51.030;4.606;2022-07-15T01:03:15;9.13;;;3.63;;
43580;SDS011;29175;51.030;4.606;2022-07-15T01:08:13;10.75;;;3.90;;
43580;SDS011;29175;51.030;4.606;2022-07-15T01:13:09;7.33;;;3.40;;
43580;SDS011;29175;51.030;4.606;2022-07-15T01:15:36;8.43;;;3.38;;
43580;SDS011;29175;51.030;4.606;2022-07-15T01:18:02;9.57;;;3.60;;
43580;SDS011;29175;51.030;4.606;2022-07-15T01:20:30;8.40;;;3.30;;
43580;SDS011;29175;51.030;4.606;2022-07-15T01:22:56;12.73;;;3.50;;
43580;SDS011;29175;51.030;4.606;2022-07-15T01:25:25;12.30;;;4.07;;
43580;SDS011;29175;51.030;4.606;2022-07-15T01:27:52;7.32;;;3.70;;
43580;SDS011;29175;51.030;4.606;2022-07-15T01:30:21;9.90;;;3.65;;
43580;SDS011;29175;51.030;4.606;2022-07-15T01:32:47;9.30;;;3.53;;
43580;SDS011;29175;51.030;4.606;2022-07-15T01:35:14;9.73;;;3.95;;
43580;SDS011;29175;51.030;4.606;2022-07-15T01:40:10;15.43;;;3.77;;
43580;SDS011;29175;51.030;4.606;2022-07-15T01:42:37;12.65;;;4.10;;
43580;SDS011;29175;51.030;4.606;2022-07-15T01:45:04;11.70;;;3.95;;
43580;SDS011;29175;51.030;4.606;2022-07-15T01:47:31;11.07;;;3.50;;
43580;SDS011;29175;51.030;4.606;2022-07-15T01:49:59;10.20;;;3.83;;
43580;SDS011;29175;51.030;4.606;2022-07-15T01:52:25;10.23;;;3.85;;
43580;SDS011;29175;51.030;4.606;2022-07-15T01:54:51;11.80;;;4.20;;
43580;SDS011;29175;51.030;4.606;2022-07-15T01:57:18;5.35;;;3.50;;
43580;SDS011;29175;51.030;4.606;2022-07-15T01:59:45;12.18;;;4.10;;
43580;SDS011;29175;51.030;4.606;2022-07-15T02:02:12;11.15;;;3.67;;
43580;SDS011;29175;51.030;4.606;2022-07-15T02:04:39;14.30;;;3.60;;
43580;SDS011;29175;51.030;4.606;2022-07-15T02:07:06;9.18;;;3.55;;
43580;SDS011;29175;51.030;4.606;2022-07-15T02:09:32;8.70;;;3.90;;
43580;SDS011;29175;51.030;4.606;2022-07-15T02:11:59;6.07;;;3.10;;
43580;SDS011;29175;51.030;4.606;2022-07-15T02:14:24;5.55;;;3.20;;
43580;SDS011;29175;51.030;4.606;2022-07-15T02:16:51;10.82;;;4.15;;
43580;SDS011;29175;51.030;4.606;2022-07-15T02:19:20;9.95;;;4.00;;
43580;SDS011;29175;51.030;4.606;2022-07-15T02:21:48;15.63;;;3.85;;
43580;SDS011;29175;51.030;4.606;2022-07-15T02:24:14;11.07;;;3.72;;
43580;SDS011;29175;51.030;4.606;2022-07-15T02:26:40;9.18;;;3.85;;
43580;SDS011;29175;51.030;4.606;2022-07-15T02:29:07;10.18;;;3.75;;
43580;SDS011;29175;51.030;4.606;2022-07-15T02:31:33;9.50;;;4.10;;
43580;SDS011;29175;51.030;4.606;2022-07-15T02:36:29;11.75;;;3.50;;
43580;SDS011;29175;51.030;4.606;2022-07-15T02:38:56;10.70;;;3.53;;
43580;SDS011;29175;51.030;4.606;2022-07-15T02:41:25;9.07;;;3.58;;
43580;SDS011;29175;51.030;4.606;2022-07-15T02:43:51;13.35;;;3.90;;
43580;SDS011;29175;51.030;4.606;2022-07-15T02:46:17;7.93;;;3.63;;
43580;SDS011;29175;51.030;4.606;2022-07-15T02:48:44;11.60;;;4.00;;
43580;SDS011;29175;51.030;4.606;2022-07-15T02:51:12;8.70;;;3.58;;
43580;SDS011;29175;51.030;4.606;2022-07-15T02:53:40;12.40;;;4.43;;
43580;SDS011;29175;51.030;4.606;2022-07-15T02:56:06;10.95;;;3.90;;
43580;SDS011;29175;51.030;4.606;2022-07-15T02:58:32;10.13;;;4.32;;
43580;SDS011;29175;51.030;4.606;2022-07-15T03:00:59;9.23;;;3.65;;
43580;SDS011;29175;51.030;4.606;2022-07-15T03:03:26;8.85;;;3.45;;
43580;SDS011;29175;51.030;4.606;2022-07-15T03:05:57;14.13;;;3.75;;
43580;SDS011;29175;51.030;4.606;2022-07-15T03:08:24;6.13;;;3.00;;
43580;SDS011;29175;51.030;4.606;2022-07-15T03:10:51;8.75;;;3.60;;
43580;SDS011;29175;51.030;4.606;2022-07-15T03:15:45;7.60;;;3.60;;
43580;SDS011;29175;51.030;4.606;2022-07-15T03:18:12;12.18;;;3.97;;
43580;SDS011;29175;51.030;4.606;2022-07-15T03:20:38;8.88;;;3.20;;
43580;SDS011;29175;51.030;4.606;2022-07-15T03:23:05;10.85;;;3.30;;
43580;SDS011;29175;51.030;4.606;2022-07-15T03:25:30;10.90;;;3.53;;
43580;SDS011;29175;51.030;4.606;2022-07-15T03:27:57;8.43;;;3.75;;
43580;SDS011;29175;51.030;4.606;2022-07-15T03:30:25;10.45;;;3.50;;
43580;SDS011;29175;51.030;4.606;2022-07-15T03:32:52;8.57;;;3.20;;
43580;SDS011;29175;51.030;4.606;2022-07-15T03:35:21;10.65;;;3.83;;
43580;SDS011;29175;51.030;4.606;2022-07-15T03:37:48;7.95;;;3.58;;
43580;SDS011;29175;51.030;4.606;2022-07-15T03:40:14;24.70;;;3.90;;
43580;SDS011;29175;51.030;4.606;2022-07-15T03:42:39;7.95;;;3.58;;
43580;SDS011;29175;51.030;4.606;2022-07-15T03:45:05;9.52;;;3.70;;
43580;SDS011;29175;51.030;4.606;2022-07-15T03:47:33;8.23;;;3.00;;
43580;SDS011;29175;51.030;4.606;2022-07-15T03:50:01;8.52;;;3.20;;
43580;SDS011;29175;51.030;4.606;2022-07-15T03:52:30;7.25;;;3.50;;
43580;SDS011;29175;51.030;4.606;2022-07-15T03:54:56;11.27;;;3.40;;
43580;SDS011;29175;51.030;4.606;2022-07-15T03:57:23;11.13;;;3.40;;
43580;SDS011;29175;51.030;4.606;2022-07-15T03:59:50;13.27;;;3.33;;
43580;SDS011;29175;51.030;4.606;2022-07-15T04:02:18;10.55;;;3.50;;
43580;SDS011;29175;51.030;4.606;2022-07-15T04:04:46;8.98;;;3.53;;
43580;SDS011;29175;51.030;4.606;2022-07-15T04:07:12;7.50;;;3.00;;
43580;SDS011;29175;51.030;4.606;2022-07-15T04:09:40;10.73;;;3.83;;
43580;SDS011;29175;51.030;4.606;2022-07-15T04:12:08;6.80;;;3.40;;
43580;SDS011;29175;51.030;4.606;2022-07-15T04:14:35;12.30;;;3.55;;
43580;SDS011;29175;51.030;4.606;2022-07-15T04:17:04;5.70;;;3.35;;
43580;SDS011;29175;51.030;4.606;2022-07-15T04:19:30;6.00;;;2.90;;
43580;SDS011;29175;51.030;4.606;2022-07-15T04:21:58;7.38;;;3.28;;
43580;SDS011;29175;51.030;4.606;2022-07-15T04:24:24;10.10;;;3.05;;
43580;SDS011;29175;51.030;4.606;2022-07-15T04:26:50;11.32;;;3.03;;
43580;SDS011;29175;51.030;4.606;2022-07-15T04:29:17;8.77;;;3.47;;
43580;SDS011;29175;51.030;4.606;2022-07-15T04:31:44;10.38;;;3.58;;
43580;SDS011;29175;51.030;4.606;2022-07-15T04:34:11;8.40;;;3.33;;
43580;SDS011;29175;51.030;4.606;2022-07-15T04:39:05;6.40;;;2.90;;
43580;SDS011;29175;51.030;4.606;2022-07-15T04:41:32;9.05;;;2.90;;
43580;SDS011;29175;51.030;4.606;2022-07-15T04:43:59;7.50;;;3.25;;
43580;SDS011;29175;51.030;4.606;2022-07-15T04:46:25;9.02;;;3.05;;
43580;SDS011;29175;51.030;4.606;2022-07-15T04:48:54;11.88;;;3.10;;
43580;SDS011;29175;51.030;4.606;2022-07-15T04:51:38;8.38;;;3.20;;
43580;SDS011;29175;51.030;4.606;2022-07-15T04:56:33;10.63;;;3.22;;
43580;SDS011;29175;51.030;4.606;2022-07-15T04:59:00;8.35;;;3.15;;
43580;SDS011;29175;51.030;4.606;2022-07-15T05:01:26;12.85;;;3.45;;
43580;SDS011;29175;51.030;4.606;2022-07-15T05:03:52;9.55;;;2.80;;
43580;SDS011;29175;51.030;4.606;2022-07-15T05:06:18;10.38;;;3.50;;
43580;SDS011;29175;51.030;4.606;2022-07-15T05:08:45;10.23;;;3.25;;
43580;SDS011;29175;51.030;4.606;2022-07-15T05:11:12;9.45;;;3.63;;
43580;SDS011;29175;51.030;4.606;2022-07-15T05:13:40;7.97;;;3.20;;
43580;SDS011;29175;51.030;4.606;2022-07-15T05:16:06;13.27;;;3.17;;
43580;SDS011;29175;51.030;4.606;2022-07-15T05:18:32;13.77;;;3.63;;
43580;SDS011;29175;51.030;4.606;2022-07-15T05:20:58;9.95;;;3.08;;
43580;SDS011;29175;51.030;4.606;2022-07-15T05:23:23;11.50;;;3.10;;
43580;SDS011;29175;51.030;4.606;2022-07-15T05:25:50;7.70;;;3.13;;
43580;SDS011;29175;51.030;4.606;2022-07-15T05:28:16;15.13;;;3.30;;
43580;SDS011;29175;51.030;4.606;2022-07-15T05:30:42;7.05;;;3.38;;
43580;SDS011;29175;51.030;4.606;2022-07-15T05:33:07;8.63;;;3.80;;
43580;SDS011;29175;51.030;4.606;2022-07-15T05:35:36;9.95;;;3.58;;
43580;SDS011;29175;51.030;4.606;2022-07-15T05:38:02;14.20;;;3.88;;
43580;SDS011;29175;51.030;4.606;2022-07-15T05:40:28;13.70;;;4.15;;
43580;SDS011;29175;51.030;4.606;2022-07-15T05:42:55;9.20;;;4.00;;
43580;SDS011;29175;51.030;4.606;2022-07-15T05:45:22;17.17;;;4.82;;
43580;SDS011;29175;51.030;4.606;2022-07-15T05:47:49;12.77;;;4.20;;
43580;SDS011;29175;51.030;4.606;2022-07-15T05:50:17;14.85;;;4.47;;
43580;SDS011;29175;51.030;4.606;2022-07-15T05:52:43;16.80;;;5.03;;
43580;SDS011;29175;51.030;4.606;2022-07-15T05:55:08;12.18;;;4.40;;
43580;SDS011;29175;51.030;4.606;2022-07-15T05:57:35;12.73;;;4.65;;
43580;SDS011;29175;51.030;4.606;2022-07-15T06:00:03;14.57;;;4.72;;
43580;SDS011;29175;51.030;4.606;2022-07-15T06:02:30;16.58;;;4.93;;
43580;SDS011;29175;51.030;4.606;2022-07-15T06:04:57;18.48;;;5.82;;
43580;SDS011;29175;51.030;4.606;2022-07-15T06:07:24;12.75;;;4.65;;
43580;SDS011;29175;51.030;4.606;2022-07-15T06:09:50;17.20;;;5.07;;
43580;SDS011;29175;51.030;4.606;2022-07-15T06:12:16;13.27;;;4.80;;
43580;SDS011;29175;51.030;4.606;2022-07-15T06:14:44;11.90;;;4.38;;
43580;SDS011;29175;51.030;4.606;2022-07-15T06:17:10;11.93;;;4.68;;
43580;SDS011;29175;51.030;4.606;2022-07-15T06:19:36;14.35;;;4.25;;
43580;SDS011;29175;51.030;4.606;2022-07-15T06:22:02;13.30;;;3.75;;
43580;SDS011;29175;51.030;4.606;2022-07-15T06:24:39;12.05;;;3.67;;
43580;SDS011;29175;51.030;4.606;2022-07-15T06:27:09;9.82;;;2.70;;
43580;SDS011;29175;51.030;4.606;2022-07-15T06:29:51;8.77;;;2.92;;
43580;SDS011;29175;51.030;4.606;2022-07-15T06:32:18;10.45;;;2.40;;
43580;SDS011;29175;51.030;4.606;2022-07-15T06:34:45;12.10;;;2.22;;
43580;SDS011;29175;51.030;4.606;2022-07-15T06:37:12;11.93;;;2.13;;
43580;SDS011;29175;51.030;4.606;2022-07-15T06:39:40;6.93;;;1.90;;
43580;SDS011;29175;51.030;4.606;2022-07-15T06:42:06;7.47;;;2.13;;
43580;SDS011;29175;51.030;4.606;2022-07-15T06:44:32;7.85;;;2.00;;
43580;SDS011;29175;51.030;4.606;2022-07-15T06:46:58;6.88;;;1.83;;
43580;SDS011;29175;51.030;4.606;2022-07-15T06:49:24;10.00;;;1.73;;
43580;SDS011;29175;51.030;4.606;2022-07-15T06:51:50;5.10;;;1.10;;
43580;SDS011;29175;51.030;4.606;2022-07-15T06:54:17;8.25;;;1.33;;
43580;SDS011;29175;51.030;4.606;2022-07-15T06:59:12;6.93;;;1.23;;
43580;SDS011;29175;51.030;4.606;2022-07-15T07:01:38;8.90;;;1.70;;
43580;SDS011;29175;51.030;4.606;2022-07-15T07:04:05;5.00;;;1.00;;
43580;SDS011;29175;51.030;4.606;2022-07-15T07:06:31;3.95;;;0.98;;
43580;SDS011;29175;51.030;4.606;2022-07-15T07:08:56;4.72;;;1.08;;
43580;SDS011;29175;51.030;4.606;2022-07-15T07:11:22;5.15;;;1.00;;
43580;SDS011;29175;51.030;4.606;2022-07-15T07:13:48;7.25;;;0.90;;
43580;SDS011;29175;51.030;4.606;2022-07-15T07:16:14;6.47;;;1.38;;
43580;SDS011;29175;51.030;4.606;2022-07-15T07:18:41;3.58;;;0.82;;
43580;SDS011;29175;51.030;4.606;2022-07-15T07:21:10;4.28;;;1.00;;
43580;SDS011;29175;51.030;4.606;2022-07-15T07:23:36;3.08;;;0.90;;
43580;SDS011;29175;51.030;4.606;2022-07-15T07:26:04;5.65;;;1.00;;
43580;SDS011;29175;51.030;4.606;2022-07-15T07:28:31;6.07;;;1.40;;
43580;SDS011;29175;51.030;4.606;2022-07-15T07:30:58;5.22;;;1.30;;
43580;SDS011;29175;51.030;4.606;2022-07-15T07:33:26;3.13;;;1.00;;
43580;SDS011;29175;51.030;4.606;2022-07-15T07:35:52;6.85;;;1.20;;
43580;SDS011;29175;51.030;4.606;2022-07-15T07:38:18;7.30;;;1.30;;
43580;SDS011;29175;51.030;4.606;2022-07-15T07:40:45;3.17;;;1.05;;
43580;SDS011;29175;51.030;4.606;2022-07-15T07:43:15;3.85;;;1.02;;
43580;SDS011;29175;51.030;4.606;2022-07-15T07:45:42;3.40;;;1.00;;
43580;SDS011;29175;51.030;4.606;2022-07-15T07:48:09;3.85;;;0.90;;
43580;SDS011;29175;51.030;4.606;2022-07-15T07:50:35;5.38;;;1.10;;
43580;SDS011;29175;51.030;4.606;2022-07-15T07:53:02;4.40;;;0.75;;
43580;SDS011;29175;51.030;4.606;2022-07-15T07:55:28;3.15;;;1.00;;
43580;SDS011;29175;51.030;4.606;2022-07-15T07:57:56;5.38;;;1.15;;
43580;SDS011;29175;51.030;4.606;2022-07-15T08:00:23;4.10;;;1.10;;
43580;SDS011;29175;51.030;4.606;2022-07-15T08:02:51;2.85;;;1.13;;
43580;SDS011;29175;51.030;4.606;2022-07-15T08:05:18;5.45;;;0.95;;
43580;SDS011;29175;51.030;4.606;2022-07-15T08:07:44;3.70;;;0.80;;
43580;SDS011;29175;51.030;4.606;2022-07-15T08:10:10;3.17;;;0.95;;
43580;SDS011;29175;51.030;4.606;2022-07-15T08:12:37;4.18;;;0.93;;
43580;SDS011;29175;51.030;4.606;2022-07-15T08:15:04;4.90;;;1.10;;
43580;SDS011;29175;51.030;4.606;2022-07-15T08:17:30;2.13;;;0.80;;
43580;SDS011;29175;51.030;4.606;2022-07-15T08:19:58;3.33;;;0.90;;
43580;SDS011;29175;51.030;4.606;2022-07-15T08:22:24;6.53;;;1.02;;
43580;SDS011;29175;51.030;4.606;2022-07-15T08:24:50;3.90;;;1.15;;
43580;SDS011;29175;51.030;4.606;2022-07-15T08:27:18;3.58;;;1.08;;
43580;SDS011;29175;51.030;4.606;2022-07-15T08:32:10;5.35;;;0.93;;
43580;SDS011;29175;51.030;4.606;2022-07-15T08:34:36;5.85;;;1.45;;
43580;SDS011;29175;51.030;4.606;2022-07-15T08:37:01;7.57;;;1.00;;
43580;SDS011;29175;51.030;4.606;2022-07-15T08:39:27;3.22;;;0.88;;
43580;SDS011;29175;51.030;4.606;2022-07-15T08:41:53;3.70;;;0.80;;
43580;SDS011;29175;51.030;4.606;2022-07-15T08:44:19;5.32;;;0.93;;
43580;SDS011;29175;51.030;4.606;2022-07-15T08:46:45;3.28;;;1.02;;
43580;SDS011;29175;51.030;4.606;2022-07-15T08:49:13;3.92;;;0.80;;
43580;SDS011;29175;51.030;4.606;2022-07-15T08:51:45;7.18;;;0.82;;
43580;SDS011;29175;51.030;4.606;2022-07-15T08:54:12;4.30;;;0.80;;
43580;SDS011;29175;51.030;4.606;2022-07-15T08:56:38;2.25;;;0.77;;
43580;SDS011;29175;51.030;4.606;2022-07-15T08:59:05;1.70;;;0.70;;
43580;SDS011;29175;51.030;4.606;2022-07-15T09:01:32;6.50;;;0.85;;
43580;SDS011;29175;51.030;4.606;2022-07-15T09:03:59;3.40;;;0.75;;
43580;SDS011;29175;51.030;4.606;2022-07-15T09:06:38;5.97;;;1.00;;
43580;SDS011;29175;51.030;4.606;2022-07-15T09:12:07;8.23;;;1.17;;
43580;SDS011;29175;51.030;4.606;2022-07-15T09:14:36;3.67;;;1.00;;
43580;SDS011;29175;51.030;4.606;2022-07-15T09:22:17;2.90;;;0.80;;
43580;SDS011;29175;51.030;4.606;2022-07-15T09:24:44;5.43;;;0.88;;
43580;SDS011;29175;51.030;4.606;2022-07-15T09:27:28;3.17;;;0.75;;
43580;SDS011;29175;51.030;4.606;2022-07-15T09:29:57;7.18;;;1.27;;
43580;SDS011;29175;51.030;4.606;2022-07-15T09:43:30;4.07;;;0.80;;
43580;SDS011;29175;51.030;4.606;2022-07-15T09:46:08;1.10;;;0.57;;
43580;SDS011;29175;51.030;4.606;2022-07-15T09:48:38;1.90;;;0.70;;
43580;SDS011;29175;51.030;4.606;2022-07-15T09:51:08;1.55;;;0.68;;
43580;SDS011;29175;51.030;4.606;2022-07-15T09:53:35;1.75;;;0.68;;
43580;SDS011;29175;51.030;4.606;2022-07-15T09:56:02;3.78;;;0.70;;
43580;SDS011;29175;51.030;4.606;2022-07-15T09:58:29;1.85;;;0.60;;
43580;SDS011;29175;51.030;4.606;2022-07-15T10:00:56;3.72;;;0.90;;
43580;SDS011;29175;51.030;4.606;2022-07-15T10:03:22;3.08;;;0.80;;
43580;SDS011;29175;51.030;4.606;2022-07-15T10:05:52;4.38;;;0.90;;
43580;SDS011;29175;51.030;4.606;2022-07-15T10:08:20;2.63;;;0.70;;
43580;SDS011;29175;51.030;4.606;2022-07-15T10:10:47;1.02;;;0.50;;
43580;SDS011;29175;51.030;4.606;2022-07-15T10:21:37;1.97;;;0.60;;
43580;SDS011;29175;51.030;4.606;2022-07-15T10:27:30;1.75;;;0.77;;
43580;SDS011;29175;51.030;4.606;2022-07-15T10:30:08;2.78;;;0.60;;
43580;SDS011;29175;51.030;4.606;2022-07-15T10:35:38;2.08;;;0.50;;
43580;SDS011;29175;51.030;4.606;2022-07-15T10:38:30;4.13;;;0.90;;
43580;SDS011;29175;51.030;4.606;2022-07-15T10:41:12;4.38;;;0.88;;
43580;SDS011;29175;51.030;4.606;2022-07-15T10:43:40;2.80;;;1.02;;
43580;SDS011;29175;51.030;4.606;2022-07-15T10:48:41;2.05;;;0.70;;
43580;SDS011;29175;51.030;4.606;2022-07-15T10:51:08;2.35;;;0.82;;
43580;SDS011;29175;51.030;4.606;2022-07-15T10:53:46;3.45;;;0.93;;
43580;SDS011;29175;51.030;4.606;2022-07-15T11:01:41;3.17;;;0.80;;
43580;SDS011;29175;51.030;4.606;2022-07-15T11:04:23;3.88;;;0.70;;
43580;SDS011;29175;51.030;4.606;2022-07-15T11:20:05;1.85;;;0.80;;
43580;SDS011;29175;51.030;4.606;2022-07-15T11:22:37;2.35;;;1.25;;
43580;SDS011;29175;51.030;4.606;2022-07-15T11:27:30;2.72;;;1.00;;
43580;SDS011;29175;51.030;4.606;2022-07-15T11:29:58;4.00;;;0.70;;
43580;SDS011;29175;51.030;4.606;2022-07-15T11:32:29;2.70;;;0.77;;
43580;SDS011;29175;51.030;4.606;2022-07-15T11:34:57;3.27;;;0.80;;
43580;SDS011;29175;51.030;4.606;2022-07-15T11:37:28;3.85;;;1.00;;
43580;SDS011;29175;51.030;4.606;2022-07-15T11:40:04;2.90;;;0.90;;
43580;SDS011;29175;51.030;4.606;2022-07-15T11:42:30;2.60;;;0.70;;
43580;SDS011;29175;51.030;4.606;2022-07-15T11:45:30;4.40;;;1.05;;
43580;SDS011;29175;51.030;4.606;2022-07-15T11:47:59;3.72;;;1.00;;
43580;SDS011;29175;51.030;4.606;2022-07-15T11:50:25;5.22;;;0.93;;
43580;SDS011;29175;51.030;4.606;2022-07-15T11:52:55;7.80;;;1.30;;
43580;SDS011;29175;51.030;4.606;2022-07-15T11:55:24;4.93;;;1.30;;
43580;SDS011;29175;51.030;4.606;2022-07-15T11:57:50;3.30;;;1.00;;
43580;SDS011;29175;51.030;4.606;2022-07-15T12:03:04;2.28;;;0.88;;
43580;SDS011;29175;51.030;4.606;2022-07-15T12:05:33;9.45;;;1.75;;
43580;SDS011;29175;51.030;4.606;2022-07-15T12:07:59;7.38;;;1.08;;
43580;SDS011;29175;51.030;4.606;2022-07-15T12:10:34;3.97;;;1.30;;
43580;SDS011;29175;51.030;4.606;2022-07-15T12:13:04;4.63;;;1.58;;
43580;SDS011;29175;51.030;4.606;2022-07-15T12:15:33;6.13;;;1.63;;
43580;SDS011;29175;51.030;4.606;2022-07-15T12:18:00;2.17;;;1.15;;
43580;SDS011;29175;51.030;4.606;2022-07-15T12:20:26;5.15;;;1.38;;
43580;SDS011;29175;51.030;4.606;2022-07-15T12:23:08;4.57;;;1.70;;
43580;SDS011;29175;51.030;4.606;2022-07-15T12:25:36;3.83;;;1.30;;
43580;SDS011;29175;51.030;4.606;2022-07-15T12:28:01;6.07;;;1.55;;
43580;SDS011;29175;51.030;4.606;2022-07-15T12:30:32;2.70;;;1.35;;
43580;SDS011;29175;51.030;4.606;2022-07-15T12:33:13;3.25;;;1.13;;
43580;SDS011;29175;51.030;4.606;2022-07-15T12:35:46;3.45;;;1.52;;
43580;SDS011;29175;51.030;4.606;2022-07-15T12:38:26;7.50;;;1.50;;
43580;SDS011;29175;51.030;4.606;2022-07-15T12:41:08;6.38;;;1.58;;
43580;SDS011;29175;51.030;4.606;2022-07-15T12:43:55;4.07;;;1.50;;
43580;SDS011;29175;51.030;4.606;2022-07-15T12:49:36;2.25;;;1.20;;
43580;SDS011;29175;51.030;4.606;2022-07-15T12:52:16;5.10;;;1.30;;
43580;SDS011;29175;51.030;4.606;2022-07-15T12:54:50;6.15;;;1.58;;
43580;SDS011;29175;51.030;4.606;2022-07-15T12:57:27;6.45;;;1.15;;
43580;SDS011;29175;51.030;4.606;2022-07-15T13:00:06;3.67;;;1.38;;
43580;SDS011;29175;51.030;4.606;2022-07-15T13:05:26;6.07;;;1.35;;
43580;SDS011;29175;51.030;4.606;2022-07-15T13:07:53;4.93;;;1.23;;
43580;SDS011;29175;51.030;4.606;2022-07-15T13:10:19;8.35;;;1.30;;
43580;SDS011;29175;51.030;4.606;2022-07-15T13:12:44;3.88;;;1.30;;
43580;SDS011;29175;51.030;4.606;2022-07-15T13:15:10;3.83;;;1.40;;
43580;SDS011;29175;51.030;4.606;2022-07-15T13:17:36;4.53;;;1.17;;
43580;SDS011;29175;51.030;4.606;2022-07-15T13:20:02;3.70;;;1.35;;
43580;SDS011;29175;51.030;4.606;2022-07-15T13:22:30;7.18;;;1.73;;
43580;SDS011;29175;51.030;4.606;2022-07-15T13:24:57;4.53;;;1.42;;
43580;SDS011;29175;51.030;4.606;2022-07-15T13:27:23;2.47;;;1.13;;
43580;SDS011;29175;51.030;4.606;2022-07-15T13:29:49;4.85;;;1.20;;
43580;SDS011;29175;51.030;4.606;2022-07-15T13:32:15;4.97;;;1.60;;
43580;SDS011;29175;51.030;4.606;2022-07-15T13:34:40;6.18;;;1.50;;
43580;SDS011;29175;51.030;4.606;2022-07-15T13:37:06;2.03;;;1.17;;
43580;SDS011;29175;51.030;4.606;2022-07-15T13:39:32;3.85;;;1.88;;
43580;SDS011;29175;51.030;4.606;2022-07-15T13:41:58;3.92;;;1.25;;
43580;SDS011;29175;51.030;4.606;2022-07-15T13:44:24;4.38;;;1.38;;
43580;SDS011;29175;51.030;4.606;2022-07-15T13:46:50;4.75;;;1.67;;
43580;SDS011;29175;51.030;4.606;2022-07-15T13:49:16;3.75;;;1.25;;
43580;SDS011;29175;51.030;4.606;2022-07-15T13:51:41;5.35;;;1.45;;
43580;SDS011;29175;51.030;4.606;2022-07-15T13:54:07;2.60;;;1.30;;
43580;SDS011;29175;51.030;4.606;2022-07-15T13:56:36;5.20;;;1.40;;
43580;SDS011;29175;51.030;4.606;2022-07-15T13:59:02;4.60;;;1.58;;
43580;SDS011;29175;51.030;4.606;2022-07-15T14:01:28;6.03;;;1.42;;
43580;SDS011;29175;51.030;4.606;2022-07-15T14:03:58;4.20;;;1.50;;
43580;SDS011;29175;51.030;4.606;2022-07-15T14:06:23;6.68;;;1.38;;
43580;SDS011;29175;51.030;4.606;2022-07-15T14:08:49;5.35;;;1.30;;
43580;SDS011;29175;51.030;4.606;2022-07-15T14:11:15;3.03;;;1.30;;
43580;SDS011;29175;51.030;4.606;2022-07-15T14:13:41;6.57;;;1.80;;
43580;SDS011;29175;51.030;4.606;2022-07-15T14:16:06;6.63;;;1.60;;
43580;SDS011;29175;51.030;4.606;2022-07-15T14:18:32;3.60;;;1.30;;
43580;SDS011;29175;51.030;4.606;2022-07-15T14:21:14;6.53;;;1.48;;
43580;SDS011;29175;51.030;4.606;2022-07-15T14:23:41;2.78;;;1.13;;
43580;SDS011;29175;51.030;4.606;2022-07-15T14:26:07;6.50;;;1.10;;
43580;SDS011;29175;51.030;4.606;2022-07-15T14:28:33;2.63;;;1.17;;
43580;SDS011;29175;51.030;4.606;2022-07-15T14:30:59;3.65;;;1.15;;
43580;SDS011;29175;51.030;4.606;2022-07-15T14:33:25;4.65;;;1.30;;
43580;SDS011;29175;51.030;4.606;2022-07-15T14:35:50;3.65;;;1.25;;
43580;SDS011;29175;51.030;4.606;2022-07-15T14:38:16;4.95;;;1.55;;
43580;SDS011;29175;51.030;4.606;2022-07-15T14:40:42;2.95;;;1.30;;
43580;SDS011;29175;51.030;4.606;2022-07-15T14:43:07;6.70;;;1.35;;
43580;SDS011;29175;51.030;4.606;2022-07-15T14:45:33;2.70;;;1.10;;
43580;SDS011;29175;51.030;4.606;2022-07-15T14:47:59;5.28;;;1.40;;
43580;SDS011;29175;51.030;4.606;2022-07-15T14:50:24;4.40;;;1.30;;
43580;SDS011;29175;51.030;4.606;2022-07-15T14:52:50;2.97;;;1.30;;
43580;SDS011;29175;51.030;4.606;2022-07-15T14:55:16;2.10;;;1.10;;
43580;SDS011;29175;51.030;4.606;2022-07-15T14:57:42;2.28;;;1.20;;
43580;SDS011;29175;51.030;4.606;2022-07-15T15:00:07;4.53;;;1.35;;
43580;SDS011;29175;51.030;4.606;2022-07-15T15:02:34;3.10;;;1.40;;
43580;SDS011;29175;51.030;4.606;2022-07-15T15:04:59;10.07;;;1.50;;
43580;SDS011;29175;51.030;4.606;2022-07-15T15:07:25;2.15;;;1.30;;
43580;SDS011;29175;51.030;4.606;2022-07-15T15:09:51;3.15;;;1.40;;
43580;SDS011;29175;51.030;4.606;2022-07-15T15:12:16;5.80;;;1.52;;
43580;SDS011;29175;51.030;4.606;2022-07-15T15:14:43;3.70;;;1.30;;
43580;SDS011;29175;51.030;4.606;2022-07-15T15:17:09;10.30;;;1.73;;
43580;SDS011;29175;51.030;4.606;2022-07-15T15:19:35;8.88;;;1.67;;
43580;SDS011;29175;51.030;4.606;2022-07-15T15:22:02;10.13;;;1.70;;
43580;SDS011;29175;51.030;4.606;2022-07-15T15:24:30;5.65;;;1.30;;
43580;SDS011;29175;51.030;4.606;2022-07-15T15:26:56;6.72;;;1.35;;
43580;SDS011;29175;51.030;4.606;2022-07-15T15:29:22;7.32;;;1.52;;
43580;SDS011;29175;51.030;4.606;2022-07-15T15:31:48;8.63;;;1.48;;
43580;SDS011;29175;51.030;4.606;2022-07-15T15:34:14;3.28;;;1.42;;
43580;SDS011;29175;51.030;4.606;2022-07-15T15:36:39;7.53;;;1.30;;
43580;SDS011;29175;51.030;4.606;2022-07-15T15:39:07;3.03;;;1.42;;
43580;SDS011;29175;51.030;4.606;2022-07-15T15:41:33;3.28;;;1.50;;
43580;SDS011;29175;51.030;4.606;2022-07-15T15:43:58;3.72;;;1.65;;
43580;SDS011;29175;51.030;4.606;2022-07-15T15:46:24;4.35;;;1.50;;
43580;SDS011;29175;51.030;4.606;2022-07-15T15:48:50;3.67;;;1.48;;
43580;SDS011;29175;51.030;4.606;2022-07-15T15:51:15;5.05;;;1.50;;
43580;SDS011;29175;51.030;4.606;2022-07-15T15:53:41;3.40;;;1.35;;
43580;SDS011;29175;51.030;4.606;2022-07-15T15:56:07;2.13;;;1.33;;
43580;SDS011;29175;51.030;4.606;2022-07-15T15:58:32;6.20;;;1.38;;
43580;SDS011;29175;51.030;4.606;2022-07-15T16:00:58;3.63;;;1.48;;
43580;SDS011;29175;51.030;4.606;2022-07-15T16:03:24;2.35;;;1.38;;
43580;SDS011;29175;51.030;4.606;2022-07-15T16:05:49;2.17;;;1.48;;
43580;SDS011;29175;51.030;4.606;2022-07-15T16:08:15;5.45;;;1.30;;
43580;SDS011;29175;51.030;4.606;2022-07-15T16:10:41;7.22;;;1.70;;
43580;SDS011;29175;51.030;4.606;2022-07-15T16:13:07;6.65;;;1.60;;
43580;SDS011;29175;51.030;4.606;2022-07-15T16:15:32;7.13;;;1.73;;
43580;SDS011;29175;51.030;4.606;2022-07-15T16:17:58;6.85;;;1.73;;
43580;SDS011;29175;51.030;4.606;2022-07-15T16:20:24;4.07;;;1.23;;
43580;SDS011;29175;51.030;4.606;2022-07-15T16:22:49;3.70;;;1.55;;
43580;SDS011;29175;51.030;4.606;2022-07-15T16:25:22;4.68;;;1.30;;